createdAt,value
2023-03-16T00:02:23.825Z,81.46
2023-03-16T00:07:24.999Z,81.71
2023-03-16T00:12:30.074Z,83.31
2023-03-16T00:17:28.184Z,82.75
2023-03-16T00:22:27.385Z,83.20
2023-03-16T00:27:29.671Z,83.00
2023-03-16T00:32:28.921Z,83.52
2023-03-16T00:37:31.143Z,83.31
2023-03-16T00:42:30.313Z,82.79
2023-03-16T00:47:31.606Z,81.96
2023-03-16T00:52:32.795Z,78.28
2023-03-16T00:57:34.904Z,77.65
2023-03-16T01:02:34.020Z,76.33
2023-03-16T01:07:36.205Z,76.23
2023-03-16T01:12:36.376Z,76.68
2023-03-16T01:17:35.551Z,76.68
2023-03-16T01:22:36.662Z,77.55
2023-03-16T01:27:37.866Z,77.55
2023-03-16T01:32:39.068Z,77.23
2023-03-16T01:37:40.220Z,77.37
2023-03-16T01:42:41.399Z,78.83
2023-03-16T01:47:41.831Z,81.68
2023-03-16T01:52:43.007Z,81.47
2023-03-16T01:57:44.154Z,82.03
2023-03-16T02:02:45.616Z,84.61
2023-03-16T02:07:44.977Z,83.98
2023-03-16T02:12:46.173Z,86.11
2023-03-16T02:17:47.356Z,85.49
2023-03-16T02:22:48.507Z,86.32
2023-03-16T02:27:49.736Z,87.09
2023-03-16T02:32:50.919Z,87.09
2023-03-16T02:37:52.159Z,87.34
2023-03-16T02:42:53.320Z,88.07
2023-03-16T02:47:54.599Z,87.96
2023-03-16T02:52:55.730Z,89.15
2023-03-16T02:57:56.905Z,88.67
2023-03-16T03:03:00.076Z,89.09
2023-03-16T03:07:59.248Z,90.28
2023-03-16T03:13:00.428Z,89.76
2023-03-16T03:18:02.599Z,88.26
2023-03-16T03:23:01.754Z,86.85
2023-03-16T03:28:03.283Z,86.13
2023-03-16T03:33:02.538Z,85.60
2023-03-16T03:38:03.772Z,85.14
2023-03-16T03:43:05.898Z,83.58
2023-03-16T03:48:06.057Z,82.60
2023-03-16T03:53:05.209Z,81.66
2023-03-16T03:58:06.342Z,81.52
2023-03-16T04:03:07.573Z,81.83
2023-03-16T04:08:08.846Z,79.33
2023-03-16T04:13:10.074Z,78.77
2023-03-16T04:18:11.343Z,78.56
2023-03-16T04:23:12.489Z,77.48
2023-03-16T04:28:13.642Z,77.37
2023-03-16T04:33:14.803Z,76.75
2023-03-16T04:38:15.955Z,76.75
2023-03-16T04:43:17.096Z,76.75
2023-03-16T04:48:18.262Z,76.43
2023-03-16T04:53:19.455Z,76.23
2023-03-16T04:58:20.602Z,76.33
2023-03-16T05:03:21.790Z,76.89
2023-03-16T05:08:23.106Z,76.68
2023-03-16T05:13:28.134Z,76.12
2023-03-16T05:18:26.280Z,74.98
2023-03-16T05:23:25.454Z,73.69
2023-03-16T05:28:26.637Z,73.69
2023-03-16T05:33:27.811Z,74.63
2023-03-16T05:38:29.016Z,74.98
2023-03-16T05:43:30.184Z,75.08
2023-03-16T05:48:31.353Z,75.40
2023-03-16T05:53:32.539Z,74.77
2023-03-16T05:58:34.625Z,74.11
2023-03-16T06:03:34.874Z,73.07
2023-03-16T06:08:34.437Z,72.09
2023-03-16T06:13:33.629Z,71.89
2023-03-16T06:18:34.843Z,71.96
2023-03-16T06:23:35.990Z,71.96
2023-03-16T06:28:38.152Z,70.50
2023-03-16T06:33:37.341Z,70.64
2023-03-16T06:38:38.552Z,68.91
2023-03-16T06:43:39.671Z,68.05
2023-03-16T06:48:40.844Z,66.15
2023-03-16T06:53:42.018Z,66.30
2023-03-16T06:58:44.195Z,65.37
2023-03-16T07:03:43.417Z,64.72
2023-03-16T07:08:44.682Z,64.27
2023-03-16T07:13:46.850Z,64.03
2023-03-16T07:18:45.973Z,64.00
2023-03-16T07:23:47.145Z,62.52
2023-03-16T07:28:48.269Z,61.77
2023-03-16T07:33:49.412Z,60.32
2023-03-16T07:38:50.565Z,60.91
2023-03-16T07:43:51.717Z,59.64
2023-03-16T07:48:52.873Z,60.14
2023-03-16T07:53:55.134Z,59.62
2023-03-16T07:58:54.263Z,58.66
2023-03-16T08:03:55.470Z,58.40
2023-03-16T08:08:57.669Z,57.65
2023-03-16T08:13:57.837Z,56.00
2023-03-16T08:18:56.936Z,57.42
2023-03-16T08:23:58.094Z,57.01
2023-03-16T08:28:59.285Z,57.50
2023-03-16T08:34:01.425Z,57.37
2023-03-16T08:39:06.841Z,55.43
2023-03-16T08:44:01.547Z,56.21
2023-03-16T08:49:00.671Z,53.61
2023-03-16T08:54:02.816Z,51.34
2023-03-16T08:59:01.925Z,52.01
2023-03-16T09:04:04.108Z,51.20
2023-03-16T09:09:03.219Z,49.19
2023-03-16T09:14:04.373Z,50.68
2023-03-16T09:19:06.513Z,51.66
2023-03-16T09:24:07.665Z,49.77
2023-03-16T09:29:06.799Z,49.26
2023-03-16T09:34:07.905Z,49.23
2023-03-16T09:39:09.024Z,48.69
2023-03-16T09:44:11.221Z,47.75
2023-03-16T09:49:10.326Z,47.24
2023-03-16T09:54:12.466Z,46.17
2023-03-16T09:59:11.626Z,45.27
2023-03-16T10:04:13.845Z,46.50
2023-03-16T10:09:13.008Z,43.90
2023-03-16T10:14:14.189Z,43.69
2023-03-16T10:19:15.342Z,45.00
2023-03-16T10:24:16.465Z,42.22
2023-03-16T10:29:18.589Z,41.47
2023-03-16T10:34:18.712Z,44.47
2023-03-16T10:39:19.099Z,40.55
2023-03-16T10:44:19.219Z,40.16
2023-03-16T10:49:18.340Z,42.47
2023-03-16T10:54:20.477Z,42.08
2023-03-16T10:59:20.621Z,40.51
2023-03-16T11:04:20.771Z,41.39
2023-03-16T11:09:18.949Z,40.35
2023-03-16T11:14:21.072Z,39.17
2023-03-16T11:19:20.217Z,42.26
2023-03-16T11:24:21.349Z,42.73
2023-03-16T11:29:21.529Z,40.20
2023-03-16T11:34:22.656Z,41.08
2023-03-16T11:39:23.796Z,40.91
2023-03-16T11:44:24.894Z,37.88
2023-03-16T11:49:27.056Z,39.48
2023-03-16T11:54:27.205Z,41.61
2023-03-16T11:59:27.350Z,40.90
2023-03-16T12:04:26.463Z,41.61
2023-03-16T12:09:27.610Z,42.51
2023-03-16T12:14:27.754Z,42.63
2023-03-16T12:19:28.875Z,43.43
2023-03-16T12:24:29.981Z,40.98
2023-03-16T12:29:32.862Z,42.02
2023-03-16T12:34:32.017Z,41.94
2023-03-16T12:39:33.163Z,43.47
2023-03-16T12:44:34.319Z,41.88
2023-03-16T12:49:35.444Z,42.37
2023-03-16T12:54:37.554Z,41.05
2023-03-16T12:59:37.718Z,40.01
2023-03-16T13:04:36.893Z,41.52
2023-03-16T13:09:38.040Z,40.11
2023-03-16T13:14:40.153Z,39.58
2023-03-16T13:19:40.352Z,42.19
2023-03-16T13:24:40.495Z,40.88
2023-03-16T13:29:39.693Z,45.26
2023-03-16T13:34:40.822Z,44.87
2023-03-16T13:39:41.979Z,44.77
2023-03-16T13:44:43.205Z,44.45
2023-03-16T13:49:44.316Z,44.65
2023-03-16T13:54:46.481Z,43.75
2023-03-16T13:59:45.690Z,44.42
2023-03-16T14:04:47.799Z,43.55
2023-03-16T14:09:46.994Z,44.95
2023-03-16T14:14:48.156Z,43.90
2023-03-16T14:19:49.304Z,42.86
2023-03-16T14:24:50.475Z,42.86
2023-03-16T14:29:51.712Z,43.55
2023-03-16T14:34:52.829Z,43.75
2023-03-16T14:39:54.034Z,43.29
2023-03-16T14:44:55.177Z,44.28
2023-03-16T14:49:56.313Z,43.57
2023-03-16T14:54:57.467Z,44.81
2023-03-16T14:59:58.700Z,44.20
2023-03-16T15:04:59.809Z,46.64
2023-03-16T15:10:01.933Z,46.31
2023-03-16T15:15:01.128Z,46.33
2023-03-16T15:20:02.281Z,45.93
2023-03-16T15:25:04.458Z,47.06
2023-03-16T15:30:02.646Z,48.28
2023-03-16T15:35:04.768Z,47.66
2023-03-16T15:40:04.912Z,48.27
2023-03-16T15:45:04.140Z,48.08
2023-03-16T15:50:06.272Z,46.97
2023-03-16T15:55:05.749Z,48.11
2023-03-16T16:00:06.088Z,48.84
2023-03-16T16:05:06.374Z,50.78
2023-03-16T16:10:05.570Z,52.30
2023-03-16T16:15:06.733Z,52.22
2023-03-16T16:20:07.878Z,51.94
2023-03-16T16:25:08.996Z,51.94
2023-03-16T16:30:10.199Z,52.76
2023-03-16T16:35:11.326Z,53.47
2023-03-16T16:40:12.509Z,53.57
2023-03-16T16:45:14.670Z,52.58
2023-03-16T16:50:14.790Z,56.68
2023-03-16T16:55:14.940Z,55.56
2023-03-16T17:00:14.248Z,56.91
2023-03-16T17:05:15.694Z,58.16
2023-03-16T17:10:18.060Z,54.33
2023-03-16T17:15:17.286Z,54.85
2023-03-16T17:20:19.289Z,56.02
2023-03-16T17:25:19.530Z,57.15
2023-03-16T17:30:19.759Z,57.81
2023-03-16T17:35:21.044Z,56.79
2023-03-16T17:40:21.498Z,57.02
2023-03-16T17:45:21.011Z,58.48
2023-03-16T17:50:22.632Z,58.79
2023-03-16T17:55:19.830Z,59.30
2023-03-16T18:00:23.018Z,60.76
2023-03-16T18:05:23.623Z,61.27
2023-03-16T18:10:23.055Z,63.90
2023-03-16T18:15:24.533Z,67.55
2023-03-16T18:20:23.954Z,67.17
2023-03-16T18:25:25.497Z,67.17
2023-03-16T18:30:25.013Z,67.89
2023-03-16T18:35:25.042Z,66.93
2023-03-16T18:40:25.473Z,67.57
2023-03-16T18:45:25.001Z,68.91
2023-03-16T18:50:25.510Z,71.00
2023-03-16T18:55:26.070Z,71.10
2023-03-16T19:00:25.753Z,71.24
2023-03-16T19:05:25.348Z,72.68
2023-03-16T19:10:26.836Z,73.02
2023-03-16T19:15:26.344Z,71.58
2023-03-16T19:20:23.642Z,73.57
2023-03-16T19:25:26.181Z,71.61
2023-03-16T19:30:26.683Z,69.38
2023-03-16T19:35:40.153Z,69.04
2023-03-16T19:40:26.549Z,65.28
2023-03-16T19:45:25.836Z,64.76
2023-03-16T19:50:27.427Z,63.71
2023-03-16T19:55:27.182Z,63.68
2023-03-16T20:00:27.745Z,63.60
2023-03-16T20:05:26.005Z,63.60
2023-03-16T20:10:28.496Z,62.96
2023-03-16T20:15:28.259Z,62.85
2023-03-16T20:20:27.973Z,62.55
2023-03-16T20:25:28.618Z,62.16
2023-03-16T20:30:28.396Z,61.42
2023-03-16T20:35:28.916Z,61.32
2023-03-16T20:40:28.790Z,60.39
2023-03-16T20:45:29.033Z,59.57
2023-03-16T20:50:28.734Z,59.54
2023-03-16T20:55:28.459Z,59.44
2023-03-16T21:00:27.874Z,59.34
2023-03-16T21:05:29.550Z,59.23
2023-03-16T21:10:29.193Z,59.13
2023-03-16T21:15:29.006Z,58.92
2023-03-16T21:20:28.379Z,59.03
2023-03-16T21:25:29.810Z,58.41
2023-03-16T21:30:29.320Z,58.64
2023-03-16T21:35:30.895Z,59.26
2023-03-16T21:40:30.561Z,59.26
2023-03-16T21:45:30.136Z,57.93
2023-03-16T21:50:29.680Z,57.18
2023-03-16T21:55:31.118Z,58.21
2023-03-16T22:00:32.348Z,58.34
2023-03-16T22:05:34.459Z,57.62
2023-03-16T22:10:33.563Z,56.46
2023-03-16T22:15:34.860Z,56.56
2023-03-16T22:20:35.011Z,56.87
2023-03-16T22:25:36.242Z,57.39
2023-03-16T22:30:37.439Z,56.79
2023-03-16T22:35:37.605Z,56.26
2023-03-16T22:40:38.764Z,55.21
2023-03-16T22:45:39.991Z,55.62
2023-03-16T22:50:41.157Z,56.05
2023-03-16T22:55:42.312Z,55.21
2023-03-16T23:00:43.541Z,53.23
2023-03-16T23:05:44.662Z,53.10
2023-03-16T23:10:45.896Z,52.69
2023-03-16T23:15:47.068Z,53.74
2023-03-16T23:20:48.326Z,55.00
2023-03-16T23:25:50.435Z,55.41
2023-03-16T23:30:49.657Z,55.23
2023-03-16T23:35:50.842Z,54.79
2023-03-16T23:40:52.083Z,53.64
2023-03-16T23:45:52.230Z,52.39
2023-03-16T23:50:53.441Z,51.56
2023-03-16T23:55:54.587Z,51.36
